Latest Weather Observations for Roseworthy

IDS60801

Issued at 10:01 am CST Thursday 26 May 2016 (issued every 30 minutes, with the page automatically refreshed every 10 minutes)

About weather observations | Map of weather stations | Latest weather observations for SA | Other Formats
Station Details ID: 023122 Name: ROSEWORTHY AWS Lat: -34.51 Lon: 138.68 Height: 65.0 m
Data from the previous 72 hours. | See also: Recent months at Roseworthy
Date/Time
CST
Temp
°C
App
Temp
°C
Dew
Point
Rel
Hum
%
Delta-T
°C
Wind Press
QNH
hPa
Press
MSL
hPa
Rain
since 9 am
mm
Dir
 
Spd
km/h
Gust
km/h
Spd
kts
Gust
kts
26/10:00am 13.3 11.5 10.7 84 1.4 WSW 11 13 6 7 1009.8 - 0.4
26/09:30am 12.5 10.8 10.0 85 1.3 SSW 9 30 5 16 1009.7 - 0.4
26/09:00am 12.8 11.4 11.0 89 0.9 WNW 9 9 5 5 1009.4 1009.4 34.6
26/08:30am 13.0 13.4 11.4 90 0.8 CALM 0 6 0 3 1009.2 - 34.6
26/08:00am 12.0 10.8 10.4 90 0.8 W 7 11 4 6 1009.0 - 34.6
26/07:30am 11.7 10.0 9.9 89 0.9 SW 9 11 5 6 1008.8 - 34.6
26/07:00am 12.3 9.0 11.0 92 0.7 W 19 20 10 11 1008.6 - 34.4
26/06:30am 12.3 11.3 11.0 92 0.7 SW 7 11 4 6 1008.0 - 34.4
26/06:00am 12.4 10.6 10.8 90 0.8 SW 11 15 6 8 1007.9 1007.9 32.8
26/05:30am 12.5 11.1 10.9 90 0.8 SW 9 13 5 7 1007.5 - 32.0
26/05:00am 12.6 10.5 11.2 91 0.7 SW 13 17 7 9 1007.4 - 32.0
26/04:30am 12.7 10.8 11.8 94 0.5 W 13 19 7 10 1007.1 - 32.0
26/04:00am 12.3 10.6 11.2 93 0.6 W 11 13 6 7 1006.8 - 32.0
26/03:30am 13.2 11.4 12.1 93 0.6 W 13 15 7 8 1006.7 - 31.8
26/03:00am 13.4 10.9 12.3 93 0.6 WNW 17 20 9 11 1006.5 1006.6 31.8
26/02:30am 13.6 11.5 12.5 93 0.6 WNW 15 19 8 10 1006.4 - 31.8
26/02:00am 13.5 12.2 12.4 93 0.6 WNW 11 17 6 9 1006.2 - 31.8
26/01:30am 13.4 10.9 12.3 93 0.6 NNW 17 20 9 11 1006.0 - 31.8
26/01:00am 13.4 10.9 12.3 93 0.6 NNW 17 20 9 11 1006.4 - 31.8
26/12:30am 13.5 10.1 12.4 93 0.6 NNW 22 28 12 15 1006.7 - 30.0
26/12:00am 13.4 10.5 12.3 93 0.6 NNW 19 22 10 12 1006.9 1007.0 27.2
 
Date/Time
CST
Temp
°C
App
Temp
°C
Dew
Point
Rel
Hum
%
Delta-T
°C
Wind Press
QNH
hPa
Press
MSL
hPa
Rain
since 9 am
mm
Dir
 
Spd
km/h
Gust
km/h
Spd
kts
Gust
kts
25/11:30pm 13.4 10.9 12.3 93 0.6 NNW 17 20 9 11 1006.9 - 24.8
25/11:00pm 13.4 9.5 12.1 92 0.7 NNW 24 32 13 17 1006.6 - 23.8
25/10:30pm 13.4 9.6 12.3 93 0.6 NW 24 28 13 15 1006.9 - 21.4
25/10:00pm 13.3 9.8 12.2 93 0.6 NW 22 30 12 16 1007.4 - 18.6
25/09:30pm 13.2 9.3 12.1 93 0.6 NNW 24 32 13 17 1007.5 - 14.0
25/09:00pm 13.1 9.5 11.8 92 0.7 NNW 22 26 12 14 1007.4 1007.5 10.8
25/08:30pm 13.0 9.4 11.7 92 0.7 NNW 22 28 12 15 1007.1 - 9.4
25/08:00pm 13.0 9.7 11.7 92 0.7 NNW 20 24 11 13 1007.2 - 8.8
25/07:30pm 13.1 9.1 11.7 91 0.7 NNW 24 30 13 16 1007.3 - 8.2
25/07:00pm 13.1 8.7 11.7 91 0.7 NNW 26 30 14 16 1007.1 - 7.8
25/06:30pm 13.2 8.1 11.8 91 0.7 NNW 30 37 16 20 1007.0 - 7.4
25/06:00pm 13.6 8.1 12.0 90 0.9 NNW 32 37 17 20 1007.1 1007.2 7.0
25/05:30pm 13.8 8.2 12.0 89 1.0 NNW 33 43 18 23 1006.9 - 6.6
25/05:00pm 13.9 8.2 11.9 88 1.1 NNW 33 43 18 23 1007.0 - 6.4
25/04:30pm 14.2 8.2 12.1 87 1.1 NNW 35 46 19 25 1006.8 - 6.0
25/04:00pm 14.2 8.2 12.1 87 1.1 NNW 35 44 19 24 1007.5 - 4.2
25/03:30pm 14.5 9.4 11.8 84 1.5 NNW 30 39 16 21 1007.2 - 3.2
25/03:00pm 14.7 9.6 11.8 83 1.6 NNW 30 39 16 21 1007.1 1007.2 2.8
25/02:30pm 15.2 10.5 12.1 82 1.7 NNW 28 35 15 19 1006.8 - 2.6
25/02:00pm 15.3 10.3 12.1 81 1.7 NNW 30 41 16 22 1006.6 - 2.6
25/01:30pm 15.0 9.6 12.1 83 1.6 NNW 32 39 17 21 1007.2 - 2.6
25/01:05pm 14.8 8.3 11.6 81 1.7 N 37 57 20 31 1007.9 - 2.6
25/01:00pm 14.9 9.3 12.0 83 1.6 N 33 43 18 23 1008.0 - 2.6
25/12:30pm 14.6 7.8 11.9 84 1.5 N 39 48 21 26 1008.4 - 2.6
25/12:00pm 14.1 7.2 11.6 85 1.3 N 39 52 21 28 1008.7 1008.7 2.6
25/11:30am 13.1 6.4 11.0 87 1.1 N 37 46 20 25 1010.2 - 2.6
25/11:00am 12.7 5.8 10.2 85 1.3 N 37 46 20 25 1010.8 - 2.0
25/10:30am 12.3 4.5 9.7 84 1.3 N 41 50 22 27 1011.5 - 1.6
25/10:00am 12.3 4.9 9.7 84 1.3 N 39 50 21 27 1011.9 - 1.2
25/09:30am 12.1 4.6 9.3 83 1.4 N 39 50 21 27 1012.1 - 0.6
25/09:00am 11.9 4.2 8.7 81 1.6 N 39 50 21 27 1012.4 1012.4 2.6
25/08:30am 12.2 5.4 7.9 75 2.1 N 33 43 18 23 1012.5 - 2.4
25/08:00am 12.3 5.6 7.2 71 2.5 N 32 43 17 23 1012.3 - 2.0
25/07:30am 12.4 6.4 6.9 69 2.6 N 28 37 15 20 1012.5 - 2.0
25/07:00am 12.2 7.3 6.9 70 2.5 N 22 28 12 15 1012.6 - 2.0
25/06:30am 12.4 7.8 6.7 68 2.7 N 20 24 11 13 1012.4 - 2.0
25/06:00am 12.6 8.3 6.9 68 2.7 N 19 22 10 12 1012.6 1012.6 2.0
25/05:30am 11.8 8.0 7.5 75 2.1 NNE 17 20 9 11 1013.0 - 2.0
25/05:00am 11.9 8.9 7.8 76 2.0 N 13 17 7 9 1013.8 - 2.0
25/04:30am 11.3 9.2 8.2 81 1.5 ENE 9 11 5 6 1013.6 - 1.6
25/04:00am 11.4 9.5 7.5 77 1.9 NW 7 13 4 7 1013.9 - 1.6
25/03:30am 12.1 8.8 6.4 68 2.7 WNW 13 20 7 11 1013.6 - 0.6
25/03:00am 13.8 12.6 4.4 53 4.3 CALM 0 9 0 5 1013.4 1013.4 0.0
25/02:30am 14.2 10.4 1.8 43 5.4 ENE 11 13 6 7 1012.7 - 0.0
25/02:00am 15.0 10.2 0.1 36 6.3 NE 15 19 8 10 1012.8 - 0.0
25/01:30am 14.9 9.2 -0.4 35 6.4 NE 19 22 10 12 1012.9 - 0.0
25/01:00am 14.7 8.9 -0.2 36 6.3 NE 20 26 11 14 1013.1 - 0.0
25/12:30am 14.1 8.0 0.4 39 5.8 NE 22 30 12 16 1013.5 - 0.0
25/12:00am 14.2 8.2 0.8 40 5.7 NNE 22 28 12 15 1014.1 1014.1 0.0
 
Date/Time
CST
Temp
°C
App
Temp
°C
Dew
Point
Rel
Hum
%
Delta-T
°C
Wind Press
QNH
hPa
Press
MSL
hPa
Rain
since 9 am
mm
Dir
 
Spd
km/h
Gust
km/h
Spd
kts
Gust
kts
24/11:30pm 14.1 7.3 1.1 41 5.6 NNE 26 30 14 16 1014.2 - 0.0
24/11:00pm 14.0 7.7 1.3 42 5.5 NNE 24 30 13 16 1014.7 - 0.0
24/10:30pm 12.3 6.2 0.7 45 4.9 NE 22 28 12 15 1014.9 - 0.0
24/10:00pm 12.2 6.5 0.3 44 4.9 NE 20 24 11 13 1015.4 - 0.0
24/09:30pm 12.3 6.3 -1.2 39 5.4 NE 20 24 11 13 1015.9 - 0.0
24/09:00pm 11.3 5.9 -1.1 42 4.9 NE 17 20 9 11 1016.1 1016.2 0.0
24/08:30pm 13.0 6.5 -2.1 35 6.0 NNE 22 26 12 14 1016.4 - 0.0
24/08:00pm 12.3 6.4 -0.9 40 5.3 NNE 20 22 11 12 1016.7 - 0.0
24/07:30pm 12.3 6.7 -0.2 42 5.1 NNE 19 20 10 11 1016.6 - 0.0
24/07:00pm 11.8 7.1 0.9 47 4.6 NNE 15 19 8 10 1016.6 - 0.0
24/06:30pm 13.0 8.1 -0.3 40 5.5 N 15 17 8 9 1016.5 - 0.0
24/06:00pm 12.9 8.4 -0.4 40 5.5 N 13 15 7 8 1016.5 1016.6 0.0
24/05:30pm 16.3 12.2 0.0 33 7.0 N 11 13 6 7 1016.5 - 0.0
24/05:00pm 18.4 13.6 0.1 29 8.0 N 15 20 8 11 1016.3 - 0.0
24/04:30pm 20.7 15.3 1.1 27 8.9 N 19 20 10 11 1016.5 - 0.0
24/04:00pm 21.3 15.4 1.6 27 9.1 N 22 28 12 15 1016.8 - 0.0
24/03:30pm 21.0 16.0 1.3 27 9.0 N 17 24 9 13 1017.1 - 0.0
24/03:00pm 21.6 15.6 1.3 26 9.3 N 22 30 12 16 1017.2 1017.3 0.0
24/02:30pm 21.1 16.0 2.9 30 8.6 N 19 33 10 18 1017.6 - 0.0
24/02:00pm 21.3 16.8 4.0 32 8.4 NNW 17 30 9 16 1017.8 - 0.0
24/01:30pm 20.9 15.9 4.5 34 8.0 N 20 28 11 15 1018.4 - 0.0
24/01:00pm 20.9 16.1 4.9 35 7.9 NNW 19 26 10 14 1019.0 - 0.0
24/12:30pm 20.3 16.5 5.9 39 7.2 N 15 26 8 14 1019.7 - 0.0
24/12:00pm 19.8 15.8 6.5 42 6.7 N 17 24 9 13 1020.5 1020.6 0.0
24/11:30am 19.4 16.1 8.1 48 5.8 NNE 15 22 8 12 1021.2 - 0.0
24/11:00am 18.5 15.6 8.2 51 5.3 NNE 13 17 7 9 1022.0 - 0.0
24/10:30am 17.5 13.9 8.4 55 4.7 NNE 17 20 9 11 1022.8 - 0.0
24/10:00am 16.8 14.1 9.0 60 4.0 NE 13 19 7 10 1023.0 - 0.0
24/09:30am 15.3 11.9 9.0 66 3.2 NE 17 19 9 10 1023.1 - 0.0
24/09:00am 13.6 10.5 8.7 72 2.5 NE 15 20 8 11 1023.2 1023.3 0.0
24/08:30am 9.9 6.4 7.2 83 1.3 ENE 15 17 8 9 1023.3 - 0.0
24/08:00am 9.4 6.2 6.7 83 1.3 ENE 13 17 7 9 1023.0 - 0.0
24/07:30am 9.0 5.4 6.6 85 1.1 NE 15 17 8 9 1022.7 - 0.0
24/07:00am 8.7 4.7 6.5 86 1.0 NE 17 20 9 11 1022.3 - 0.0
24/06:30am 8.6 4.9 6.2 85 1.1 NE 15 19 8 10 1022.1 - 0.0
24/06:00am 8.6 4.9 6.4 86 1.0 NE 15 17 8 9 1022.0 1022.1 0.0
24/05:30am 8.5 5.9 6.3 86 1.0 ENE 9 15 5 8 1021.7 - 0.0
24/05:00am 8.1 5.1 5.9 86 1.0 NE 11 11 6 6 1022.0 - 0.0
24/04:30am 9.0 6.2 6.8 86 1.0 NE 11 13 6 7 1021.8 - 0.0
24/04:00am 9.2 5.7 7.2 87 0.9 NE 15 19 8 10 1021.8 - 0.0
24/03:30am 8.6 5.0 6.9 89 0.8 NNE 15 17 8 9 1022.0 - 0.0
24/03:00am 8.2 4.5 6.5 89 0.8 NE 15 17 8 9 1022.2 1022.3 0.0
24/02:30am 8.1 4.8 6.2 88 0.9 NNE 13 15 7 8 1022.5 - 0.0
24/02:00am 8.3 5.0 6.6 89 0.8 ENE 13 17 7 9 1022.2 - 0.0
24/01:30am 7.8 4.1 6.3 90 0.7 NE 15 17 8 9 1022.7 - 0.0
24/01:00am 7.2 4.8 5.2 87 0.9 NNE 7 9 4 5 1022.8 - 0.0
24/12:30am 7.6 4.5 5.6 87 0.9 N 11 13 6 7 1023.3 - 0.0
24/12:00am 8.4 5.4 6.2 86 1.0 NE 11 15 6 8 1023.3 1023.4 0.0
 
Date/Time
CST
Temp
°C
App
Temp
°C
Dew
Point
Rel
Hum
%
Delta-T
°C
Wind Press
QNH
hPa
Press
MSL
hPa
Rain
since 9 am
mm
Dir
 
Spd
km/h
Gust
km/h
Spd
kts
Gust
kts
23/11:30pm 9.4 5.5 7.0 85 1.1 NNE 17 17 9 9 1023.3 - 0.0
23/11:00pm 9.3 5.4 6.9 85 1.1 NNE 17 19 9 10 1023.4 - 0.0
23/10:30pm 9.4 6.7 7.2 86 1.0 NNE 11 13 6 7 1023.7 - 0.0
23/10:00pm 10.0 7.0 7.6 85 1.2 N 13 15 7 8 1024.1 - 0.0
23/09:30pm 9.9 7.8 6.6 80 1.5 NW 7 9 4 5 1024.3 - 0.0
23/09:00pm 11.2 8.5 7.5 78 1.8 NNW 11 13 6 7 1024.3 1024.3 0.0
23/08:30pm 11.7 9.1 7.6 76 2.0 NW 11 13 6 7 1024.1 - 0.0
23/08:00pm 12.7 10.2 8.2 74 2.2 NNW 11 15 6 8 1024.0 - 0.0
23/07:30pm 11.0 8.0 6.2 72 2.2 NNW 11 13 6 7 1023.7 - 0.0
23/07:00pm 12.7 9.6 7.4 70 2.6 NW 13 13 7 7 1023.6 - 0.0
23/06:30pm 13.3 11.0 7.5 68 2.8 WNW 9 11 5 6 1023.3 - 0.0
23/06:00pm 12.9 10.4 6.7 66 3.0 WNW 9 11 5 6 1023.0 1023.1 0.0
23/05:30pm 14.2 11.4 7.0 62 3.5 W 11 13 6 7 1022.7 - 0.0
23/05:00pm 16.4 13.1 7.9 57 4.3 W 15 20 8 11 1022.6 - 0.0
23/04:30pm 17.7 13.7 8.3 54 4.8 W 19 22 10 12 1022.4 - 0.0
23/04:00pm 18.7 15.2 8.7 52 5.2 WSW 17 20 9 11 1022.2 - 0.0
23/03:30pm 18.4 15.2 8.4 52 5.2 WSW 15 24 8 13 1022.2 - 0.0
23/03:00pm 19.0 14.3 7.8 48 5.7 W 22 30 12 16 1021.8 1021.9 0.0
23/02:30pm 18.9 13.8 7.7 48 5.7 W 24 30 13 16 1022.2 - 0.0
23/02:00pm 19.1 14.6 8.7 51 5.4 W 22 32 12 17 1022.2 - 0.0
23/01:30pm 17.7 12.6 7.7 52 5.1 W 24 32 13 17 1022.3 - 0.0
23/01:00pm 17.7 13.1 8.3 54 4.8 W 22 33 12 18 1022.3 - 0.0
23/12:30pm 18.0 13.2 8.8 55 4.8 W 24 35 13 19 1022.5 - 0.0
23/12:00pm 18.2 13.4 8.7 54 4.9 W 24 35 13 19 1022.6 1022.7 0.0
23/11:30am 17.6 12.9 7.9 53 4.9 W 22 33 12 18 1023.1 - 0.0
23/11:00am 17.7 13.3 9.1 57 4.5 W 22 30 12 16 1023.2 - 0.0
23/10:30am 16.4 12.7 10.3 67 3.2 NW 20 28 11 15 1023.6 - 0.0

Other Formats:

Comma delimited format used in spreadsheet applications
http://www.bom.gov.au/fwo/IDS60801/IDS60801.95671.axf

JavaScript Object Notation format (JSON) in row-major order
http://www.bom.gov.au/fwo/IDS60801/IDS60801.95671.json